createdAt,value
2018-04-19T00:00:42.358Z,9.61
2018-04-19T00:01:42.600Z,9.60
2018-04-19T00:02:41.545Z,9.52
2018-04-19T00:03:42.579Z,9.43
2018-04-19T00:04:41.587Z,9.48
2018-04-19T00:05:41.548Z,9.45
2018-04-19T00:06:41.924Z,9.46
2018-04-19T00:07:41.546Z,9.45
2018-04-19T00:08:42.359Z,9.39
2018-04-19T00:09:43.357Z,9.49
2018-04-19T00:10:41.547Z,9.39
2018-04-19T00:11:41.546Z,9.40
2018-04-19T00:12:41.544Z,9.43
2018-04-19T00:13:42.553Z,9.38
2018-04-19T00:14:52.560Z,9.39
2018-04-19T00:15:41.549Z,9.31
2018-04-19T00:16:42.687Z,9.21
2018-04-19T00:17:41.925Z,9.18
2018-04-19T00:18:41.541Z,9.18
2018-04-19T00:19:42.368Z,9.05
2018-04-19T00:20:41.572Z,9.06
2018-04-19T00:21:41.538Z,9.05
2018-04-19T00:22:42.500Z,9.06
2018-04-19T00:23:41.538Z,9.04
2018-04-19T00:24:41.674Z,9.09
2018-04-19T00:25:41.530Z,9.16
2018-04-19T00:26:41.537Z,9.10
2018-04-19T00:27:41.531Z,9.09
2018-04-19T00:28:41.534Z,9.04
2018-04-19T00:29:41.591Z,9.02
2018-04-19T00:30:41.529Z,8.96
2018-04-19T00:31:41.523Z,8.99
2018-04-19T00:32:41.528Z,8.88
2018-04-19T00:33:41.524Z,8.97
2018-04-19T00:34:41.577Z,8.93
2018-04-19T00:35:56.578Z,8.97
2018-04-19T00:36:41.515Z,8.90
2018-04-19T00:37:41.517Z,8.90
2018-04-19T00:38:41.518Z,8.83
2018-04-19T00:39:41.562Z,8.91
2018-04-19T00:40:41.512Z,8.96
2018-04-19T00:41:41.509Z,8.83
2018-04-19T00:42:41.527Z,8.83
2018-04-19T00:43:41.511Z,8.83
2018-04-19T00:44:41.551Z,8.75
2018-04-19T00:45:41.514Z,8.84
2018-04-19T00:46:41.503Z,8.90
2018-04-19T00:47:41.508Z,8.90
2018-04-19T00:48:41.507Z,8.86
2018-04-19T00:49:44.564Z,8.86
2018-04-19T00:50:41.499Z,8.86
2018-04-19T00:51:41.500Z,8.90
2018-04-19T00:52:41.497Z,8.88
2018-04-19T00:53:41.492Z,8.86
2018-04-19T00:54:52.048Z,8.81
2018-04-19T00:55:41.501Z,8.79
2018-04-19T00:56:41.572Z,8.83
2018-04-19T00:57:41.497Z,8.81
2018-04-19T00:58:41.495Z,8.73
2018-04-19T00:59:41.534Z,8.76
2018-04-19T01:00:41.493Z,8.72
2018-04-19T01:01:41.490Z,8.71
2018-04-19T01:02:41.481Z,8.68
2018-04-19T01:03:41.481Z,8.73
2018-04-19T01:04:41.530Z,8.63
2018-04-19T01:05:41.476Z,8.68
2018-04-19T01:06:41.485Z,8.66
2018-04-19T01:07:41.498Z,8.72
2018-04-19T01:08:41.475Z,8.72
2018-04-19T01:09:41.534Z,8.69
2018-04-19T01:10:41.479Z,8.68
2018-04-19T01:11:41.478Z,8.71
2018-04-19T01:12:41.472Z,8.72
2018-04-19T01:13:41.474Z,8.66
2018-04-19T01:14:41.515Z,8.63
2018-04-19T01:15:41.478Z,8.69
2018-04-19T01:16:41.467Z,8.66
2018-04-19T01:17:41.464Z,8.58
2018-04-19T01:18:41.471Z,8.66
2018-04-19T01:19:41.515Z,8.50
2018-04-19T01:20:41.464Z,8.51
2018-04-19T01:21:41.466Z,8.42
2018-04-19T01:22:41.460Z,8.29
2018-04-19T01:23:41.464Z,8.30
2018-04-19T01:24:41.517Z,8.17
2018-04-19T01:25:41.457Z,8.08
2018-04-19T01:26:41.452Z,7.97
2018-04-19T01:27:41.449Z,7.99
2018-04-19T01:28:41.448Z,7.90
2018-04-19T01:29:41.445Z,7.89
2018-04-19T01:30:41.493Z,7.87
2018-04-19T01:31:41.446Z,7.81
2018-04-19T01:32:41.441Z,7.87
2018-04-19T01:33:41.445Z,7.77
2018-04-19T01:34:41.447Z,7.78
2018-04-19T01:35:41.489Z,7.67
2018-04-19T01:36:41.543Z,7.75
2018-04-19T01:37:41.444Z,7.78
2018-04-19T01:38:41.438Z,7.74
2018-04-19T01:39:41.433Z,7.84
2018-04-19T01:40:41.477Z,7.84
2018-04-19T01:41:41.434Z,7.74
2018-04-19T01:42:41.425Z,7.87
2018-04-19T01:43:41.429Z,7.85
2018-04-19T01:44:41.426Z,7.79
2018-04-19T01:45:41.481Z,7.90
2018-04-19T01:46:41.422Z,7.87
2018-04-19T01:47:41.418Z,7.81
2018-04-19T01:48:41.418Z,7.84
2018-04-19T01:49:41.421Z,7.81
2018-04-19T01:50:41.416Z,7.81
2018-04-19T01:51:52.056Z,7.75
2018-04-19T01:52:41.413Z,7.72
2018-04-19T01:53:41.406Z,7.66
2018-04-19T01:54:41.413Z,7.47
2018-04-19T01:55:41.404Z,7.50
2018-04-19T01:56:49.203Z,7.49
2018-04-19T01:57:41.404Z,7.59
2018-04-19T01:58:41.398Z,7.44
2018-04-19T01:59:41.403Z,7.53
2018-04-19T02:00:41.463Z,7.58
2018-04-19T02:01:41.391Z,7.56
2018-04-19T02:02:41.400Z,7.52
2018-04-19T02:03:41.392Z,7.40
2018-04-19T02:04:41.373Z,7.45
2018-04-19T02:05:41.369Z,7.49
2018-04-19T02:06:41.414Z,7.40
2018-04-19T02:07:41.366Z,7.40
2018-04-19T02:08:41.359Z,7.38
2018-04-19T02:09:41.363Z,7.41
2018-04-19T02:10:41.367Z,7.38
2018-04-19T02:11:46.538Z,7.35
2018-04-19T02:12:41.349Z,7.24
2018-04-19T02:13:41.361Z,7.23
2018-04-19T02:14:41.350Z,7.24
2018-04-19T02:15:41.351Z,7.23
2018-04-19T02:16:41.387Z,7.24
2018-04-19T02:17:41.403Z,7.20
2018-04-19T02:18:41.339Z,7.15
2018-04-19T02:19:41.348Z,7.13
2018-04-19T02:20:41.339Z,7.01
2018-04-19T02:21:41.395Z,7.09
2018-04-19T02:22:41.335Z,7.08
2018-04-19T02:23:41.330Z,7.12
2018-04-19T02:24:41.333Z,7.35
2018-04-19T02:25:41.336Z,7.34
2018-04-19T02:26:49.040Z,7.37
2018-04-19T02:27:41.331Z,7.47
2018-04-19T02:28:41.331Z,7.52
2018-04-19T02:29:41.320Z,7.58
2018-04-19T02:30:41.324Z,7.71
2018-04-19T02:31:41.369Z,7.63
2018-04-19T02:32:41.313Z,7.59
2018-04-19T02:33:41.310Z,7.63
2018-04-19T02:34:41.318Z,7.59
2018-04-19T02:35:41.389Z,7.58
2018-04-19T02:36:41.692Z,7.60
2018-04-19T02:37:41.302Z,7.49
2018-04-19T02:38:41.304Z,7.56
2018-04-19T02:39:41.736Z,7.52
2018-04-19T02:40:41.301Z,7.56
2018-04-19T02:41:41.297Z,7.45
2018-04-19T02:42:41.339Z,7.47
2018-04-19T02:43:41.299Z,7.44
2018-04-19T02:44:41.292Z,7.53
2018-04-19T02:45:41.290Z,7.32
2018-04-19T02:46:41.295Z,7.34
2018-04-19T02:47:41.363Z,7.38
2018-04-19T02:48:41.283Z,7.29
2018-04-19T02:49:41.281Z,7.41
2018-04-19T02:50:41.286Z,7.38
2018-04-19T02:51:41.278Z,7.32
2018-04-19T02:52:41.286Z,7.50
2018-04-19T02:53:52.026Z,7.50
2018-04-19T02:54:41.271Z,7.52
2018-04-19T02:55:41.265Z,7.45
2018-04-19T02:56:41.278Z,7.60
2018-04-19T02:57:41.393Z,7.49
2018-04-19T02:58:41.305Z,7.49
2018-04-19T02:59:41.258Z,7.44
2018-04-19T03:00:41.266Z,7.58
2018-04-19T03:01:41.265Z,7.53
2018-04-19T03:02:41.256Z,7.49
2018-04-19T03:03:41.301Z,7.47
2018-04-19T03:04:41.256Z,7.37
2018-04-19T03:05:41.255Z,7.34
2018-04-19T03:06:41.243Z,7.34
2018-04-19T03:07:41.247Z,7.32
2018-04-19T03:08:41.302Z,7.41
2018-04-19T03:09:41.240Z,7.37
2018-04-19T03:10:41.243Z,7.37
2018-04-19T03:11:41.249Z,7.32
2018-04-19T03:12:41.240Z,7.38
2018-04-19T03:13:41.282Z,7.38
2018-04-19T03:14:41.231Z,7.29
2018-04-19T03:15:41.227Z,7.35
2018-04-19T03:16:41.233Z,7.40
2018-04-19T03:17:41.227Z,7.31
2018-04-19T03:18:41.268Z,7.29
2018-04-19T03:19:41.221Z,7.34
2018-04-19T03:20:41.214Z,7.38
2018-04-19T03:21:41.259Z,7.37
2018-04-19T03:22:41.219Z,7.32
2018-04-19T03:23:41.276Z,7.31
2018-04-19T03:24:41.210Z,7.27
2018-04-19T03:25:41.215Z,7.35
2018-04-19T03:26:41.214Z,7.29
2018-04-19T03:27:41.205Z,7.15
2018-04-19T03:28:41.200Z,7.09
2018-04-19T03:29:41.352Z,7.08
2018-04-19T03:30:41.193Z,7.13
2018-04-19T03:31:41.200Z,7.19
2018-04-19T03:32:41.195Z,7.22
2018-04-19T03:33:41.192Z,7.22
2018-04-19T03:34:41.189Z,7.26
2018-04-19T03:35:41.230Z,7.31
2018-04-19T03:36:41.190Z,7.38
2018-04-19T03:37:41.228Z,7.37
2018-04-19T03:38:41.178Z,7.31
2018-04-19T03:39:49.022Z,7.37
2018-04-19T03:40:41.228Z,7.37
2018-04-19T03:41:41.168Z,7.41
2018-04-19T03:42:41.166Z,7.35
2018-04-19T03:43:41.170Z,7.23
2018-04-19T03:44:41.161Z,7.26
2018-04-19T03:45:42.025Z,7.37
2018-04-19T03:46:41.170Z,7.31
2018-04-19T03:47:41.165Z,7.34
2018-04-19T03:48:41.157Z,7.13
2018-04-19T03:49:41.167Z,7.08
2018-04-19T03:50:41.206Z,7.05
2018-04-19T03:51:41.166Z,6.80
2018-04-19T03:52:41.151Z,6.84
2018-04-19T03:53:41.146Z,6.72
2018-04-19T03:54:41.150Z,6.84
2018-04-19T03:55:41.199Z,6.79
2018-04-19T03:56:41.138Z,6.69
2018-04-19T03:57:41.135Z,6.69
2018-04-19T03:58:41.139Z,6.65
2018-04-19T03:59:46.539Z,6.65
2018-04-19T04:00:41.136Z,6.69
2018-04-19T04:01:41.128Z,6.61
2018-04-19T04:02:41.141Z,6.62
2018-04-19T04:03:41.136Z,6.65
2018-04-19T04:04:41.150Z,6.63
2018-04-19T04:05:41.172Z,6.69
2018-04-19T04:06:41.127Z,6.81
2018-04-19T04:07:41.128Z,6.86
2018-04-19T04:08:41.113Z,6.87
2018-04-19T04:09:41.114Z,6.77
2018-04-19T04:10:41.192Z,6.86
2018-04-19T04:11:41.105Z,6.81
2018-04-19T04:12:41.103Z,6.83
2018-04-19T04:13:41.096Z,6.86
2018-04-19T04:14:41.102Z,6.89
2018-04-19T04:15:41.096Z,6.89
2018-04-19T04:16:41.140Z,6.83
2018-04-19T04:17:41.088Z,6.83
2018-04-19T04:18:41.086Z,6.79
2018-04-19T04:19:41.101Z,6.84
2018-04-19T04:20:41.089Z,6.84
2018-04-19T04:21:41.129Z,6.83
2018-04-19T04:22:41.086Z,6.84
2018-04-19T04:23:41.091Z,6.81
2018-04-19T04:24:41.077Z,6.89
2018-04-19T04:25:41.077Z,6.98
2018-04-19T04:26:41.518Z,6.95
2018-04-19T04:27:41.070Z,6.97
2018-04-19T04:28:41.065Z,7.01
2018-04-19T04:29:41.374Z,6.99
2018-04-19T04:30:41.066Z,6.98
2018-04-19T04:31:49.017Z,6.99
2018-04-19T04:32:41.058Z,6.94
2018-04-19T04:33:41.052Z,7.08
2018-04-19T04:34:41.052Z,7.17
2018-04-19T04:35:41.052Z,7.29
2018-04-19T04:36:41.131Z,7.37
2018-04-19T04:37:41.044Z,7.49
2018-04-19T04:38:41.050Z,7.52
2018-04-19T04:39:41.047Z,7.49
2018-04-19T04:40:41.059Z,7.41
2018-04-19T04:41:41.475Z,7.50
2018-04-19T04:42:41.031Z,7.66
2018-04-19T04:43:41.032Z,7.75
2018-04-19T04:44:41.034Z,7.82
2018-04-19T04:45:41.026Z,7.90
2018-04-19T04:46:41.057Z,8.11
2018-04-19T04:47:41.068Z,8.20
2018-04-19T04:48:41.027Z,8.35
2018-04-19T04:49:41.021Z,8.42
2018-04-19T04:50:41.059Z,8.39
2018-04-19T04:51:41.015Z,8.28
2018-04-19T04:52:41.064Z,8.29
2018-04-19T04:53:41.013Z,8.33
2018-04-19T04:54:41.015Z,8.39
2018-04-19T04:55:41.009Z,8.32
2018-04-19T04:56:41.009Z,8.50
2018-04-19T04:57:55.584Z,8.42
2018-04-19T04:58:41.001Z,8.30
2018-04-19T04:59:41.002Z,8.21
2018-04-19T05:00:40.998Z,8.18
2018-04-19T05:01:40.992Z,8.17
2018-04-19T05:02:41.035Z,8.17
2018-04-19T05:03:40.995Z,8.18
2018-04-19T05:04:40.987Z,8.33
2018-04-19T05:05:41.037Z,8.47
2018-04-19T05:06:40.986Z,8.54
2018-04-19T05:07:52.024Z,8.66
2018-04-19T05:08:41.244Z,8.78
2018-04-19T05:09:41.934Z,9.06
2018-04-19T05:10:40.978Z,9.40
2018-04-19T05:11:40.979Z,9.76
2018-04-19T05:12:48.528Z,9.85
2018-04-19T05:13:40.985Z,9.93
2018-04-19T05:14:41.000Z,10.17
2018-04-19T05:15:41.503Z,10.40
2018-04-19T05:16:40.971Z,10.53
2018-04-19T05:17:41.022Z,10.71
2018-04-19T05:18:41.025Z,10.88
2018-04-19T05:19:40.966Z,11.28
2018-04-19T05:20:40.963Z,11.46
2018-04-19T05:21:40.969Z,11.77
2018-04-19T05:22:44.030Z,11.86
2018-04-19T05:23:40.956Z,11.94
2018-04-19T05:24:40.970Z,12.13
2018-04-19T05:25:40.969Z,12.38
2018-04-19T05:26:40.973Z,12.46
2018-04-19T05:27:41.018Z,12.81
2018-04-19T05:28:40.966Z,13.18
2018-04-19T05:29:41.470Z,13.51
2018-04-19T05:30:40.951Z,13.77
2018-04-19T05:31:40.976Z,14.04
2018-04-19T05:32:48.530Z,14.04
2018-04-19T05:33:40.951Z,14.02
2018-04-19T05:34:40.957Z,14.02
2018-04-19T05:35:40.949Z,13.95
2018-04-19T05:36:40.962Z,14.09
2018-04-19T05:37:40.989Z,13.96
2018-04-19T05:38:40.949Z,13.67
2018-04-19T05:39:40.947Z,12.95
2018-04-19T05:40:40.955Z,12.64
2018-04-19T05:41:40.953Z,12.44
2018-04-19T05:42:41.023Z,12.51
2018-04-19T05:43:40.950Z,12.52
2018-04-19T05:44:40.954Z,12.74
2018-04-19T05:45:40.950Z,12.88
2018-04-19T05:46:40.950Z,13.00
2018-04-19T05:47:41.007Z,13.27
2018-04-19T05:48:40.956Z,13.69
2018-04-19T05:49:42.585Z,14.10
2018-04-19T05:50:40.951Z,14.37
2018-04-19T05:51:40.957Z,14.62
2018-04-19T05:52:41.038Z,14.71
2018-04-19T05:53:40.975Z,14.88
2018-04-19T05:54:40.951Z,15.11
2018-04-19T05:55:40.956Z,15.35
2018-04-19T05:56:40.963Z,15.68
2018-04-19T05:57:40.964Z,15.89
2018-04-19T05:58:41.016Z,15.99
2018-04-19T05:59:40.955Z,15.79
2018-04-19T06:00:40.956Z,15.93
2018-04-19T06:01:40.958Z,15.78
2018-04-19T06:02:41.476Z,15.78
2018-04-19T06:03:41.001Z,16.07
2018-04-19T06:04:40.964Z,16.49
2018-04-19T06:05:40.963Z,16.92
2018-04-19T06:06:40.973Z,17.29
2018-04-19T06:07:40.973Z,17.69
2018-04-19T06:08:41.048Z,17.79
2018-04-19T06:09:40.969Z,17.78
2018-04-19T06:10:40.979Z,17.85
2018-04-19T06:11:40.972Z,18.31
2018-04-19T06:12:40.973Z,18.46
2018-04-19T06:13:41.037Z,18.49
2018-04-19T06:14:40.976Z,18.49
2018-04-19T06:15:40.986Z,18.42
2018-04-19T06:16:40.996Z,18.52
2018-04-19T06:17:40.988Z,18.58
2018-04-19T06:18:41.045Z,18.44
2018-04-19T06:19:41.002Z,18.25
2018-04-19T06:20:40.990Z,18.50
2018-04-19T06:21:40.996Z,18.29
2018-04-19T06:22:41.001Z,18.33
2018-04-19T06:23:41.060Z,18.46
2018-04-19T06:24:41.004Z,17.85
2018-04-19T06:25:41.971Z,17.59
2018-04-19T06:26:41.015Z,16.80
2018-04-19T06:27:41.022Z,16.20
2018-04-19T06:28:41.067Z,16.71
2018-04-19T06:29:41.025Z,16.92
2018-04-19T06:30:41.035Z,17.55
2018-04-19T06:31:41.971Z,18.24
2018-04-19T06:32:41.040Z,18.67
2018-04-19T06:33:41.094Z,18.97
2018-04-19T06:34:41.047Z,19.35
2018-04-19T06:35:41.060Z,19.78
2018-04-19T06:36:41.057Z,19.79
2018-04-19T06:37:41.061Z,19.93
2018-04-19T06:38:41.071Z,20.13
2018-04-19T06:39:41.134Z,20.34
2018-04-19T06:40:41.067Z,20.35
2018-04-19T06:41:41.073Z,20.39
2018-04-19T06:42:41.075Z,20.54
2018-04-19T06:43:41.081Z,20.71
2018-04-19T06:44:41.138Z,20.80
2018-04-19T06:45:41.094Z,20.99
2018-04-19T06:46:41.099Z,20.80
2018-04-19T06:47:41.106Z,20.93
2018-04-19T06:48:41.116Z,21.08
2018-04-19T06:49:41.562Z,21.23
2018-04-19T06:50:41.134Z,20.91
2018-04-19T06:51:41.300Z,21.09
2018-04-19T06:52:41.136Z,21.26
2018-04-19T06:53:41.136Z,20.95
2018-04-19T06:54:41.188Z,20.98
2018-04-19T06:55:41.150Z,21.23
2018-04-19T06:56:41.152Z,21.54
2018-04-19T06:57:41.155Z,21.66
2018-04-19T06:58:41.168Z,21.51
2018-04-19T06:59:41.328Z,21.67
2018-04-19T07:00:41.177Z,21.78
2018-04-19T07:01:41.196Z,22.09
2018-04-19T07:02:41.190Z,22.13
2018-04-19T07:03:41.211Z,22.32
2018-04-19T07:04:41.211Z,22.22
2018-04-19T07:05:41.264Z,22.34
2018-04-19T07:06:41.217Z,22.37
2018-04-19T07:07:41.224Z,22.28
2018-04-19T07:08:41.235Z,22.35
2018-04-19T07:09:41.241Z,22.32
2018-04-19T07:10:52.045Z,22.35
2018-04-19T07:11:41.261Z,21.94
2018-04-19T07:12:41.270Z,21.91
2018-04-19T07:13:41.278Z,21.88
2018-04-19T07:14:41.318Z,22.09
2018-04-19T07:15:41.348Z,22.23
2018-04-19T07:16:41.297Z,22.44
2018-04-19T07:17:41.347Z,22.57
2018-04-19T07:18:41.310Z,22.68
2018-04-19T07:19:41.319Z,22.65
2018-04-19T07:20:41.375Z,22.65
2018-04-19T07:21:41.340Z,22.69
2018-04-19T07:22:41.342Z,22.65
2018-04-19T07:23:41.351Z,23.02
2018-04-19T07:24:41.360Z,23.42
2018-04-19T07:25:41.570Z,23.14
2018-04-19T07:26:41.379Z,23.38
2018-04-19T07:27:41.397Z,23.49
2018-04-19T07:28:41.398Z,23.34
2018-04-19T07:29:41.408Z,22.87
2018-04-19T07:30:41.419Z,22.38
2018-04-19T07:31:41.471Z,22.12
2018-04-19T07:32:41.432Z,22.50
2018-04-19T07:33:41.446Z,22.13
2018-04-19T07:34:41.452Z,22.44
2018-04-19T07:35:41.460Z,21.92
2018-04-19T07:36:41.535Z,22.13
2018-04-19T07:37:41.478Z,21.88
2018-04-19T07:38:41.494Z,21.34
2018-04-19T07:39:41.501Z,21.39
2018-04-19T07:40:41.520Z,21.05
2018-04-19T07:41:41.616Z,21.69
2018-04-19T07:42:41.536Z,22.27
2018-04-19T07:43:41.557Z,22.94
2018-04-19T07:44:41.559Z,23.62
2018-04-19T07:45:41.568Z,24.00
2018-04-19T07:46:41.574Z,23.79
2018-04-19T07:47:47.045Z,24.07
2018-04-19T07:48:41.607Z,24.68
2018-04-19T07:49:41.618Z,25.02
2018-04-19T07:50:41.656Z,25.06
2018-04-19T07:51:41.633Z,25.22
2018-04-19T07:52:41.689Z,25.37
2018-04-19T07:53:41.662Z,25.72
2018-04-19T07:54:41.698Z,25.71
2018-04-19T07:55:41.681Z,25.53
2018-04-19T07:56:42.210Z,25.42
2018-04-19T07:57:41.749Z,25.46
2018-04-19T07:58:41.719Z,25.53
2018-04-19T07:59:41.733Z,25.68
2018-04-19T08:00:41.744Z,25.56
2018-04-19T08:01:41.818Z,25.47
2018-04-19T08:02:41.772Z,25.38
2018-04-19T08:03:41.785Z,25.69
2018-04-19T08:04:41.794Z,26.02
2018-04-19T08:05:41.801Z,26.06
2018-04-19T08:06:42.123Z,26.36
2018-04-19T08:07:41.837Z,26.54
2018-04-19T08:08:41.847Z,25.84
2018-04-19T08:09:41.871Z,25.91
2018-04-19T08:10:41.881Z,26.27
2018-04-19T08:11:42.726Z,26.49
2018-04-19T08:12:41.910Z,26.52
2018-04-19T08:13:41.917Z,26.35
2018-04-19T08:14:41.933Z,26.40
2018-04-19T08:15:41.940Z,26.55
2018-04-19T08:16:42.017Z,26.61
2018-04-19T08:17:41.979Z,26.69
2018-04-19T08:18:41.987Z,26.65
2018-04-19T08:19:42.005Z,26.64
2018-04-19T08:20:42.020Z,26.91
2018-04-19T08:21:42.584Z,26.89
2018-04-19T08:22:42.042Z,26.92
2018-04-19T08:23:42.056Z,26.99
2018-04-19T08:24:42.070Z,26.76
2018-04-19T08:25:42.085Z,26.76
2018-04-19T08:26:42.141Z,26.80
2018-04-19T08:27:42.149Z,26.87
2018-04-19T08:28:42.129Z,27.02
2018-04-19T08:29:42.154Z,27.19
2018-04-19T08:30:42.166Z,26.84
2018-04-19T08:31:42.218Z,26.95
2018-04-19T08:32:42.234Z,26.80
2018-04-19T08:33:42.197Z,26.96
2018-04-19T08:34:42.235Z,27.16
2018-04-19T08:35:42.224Z,27.31
2018-04-19T08:36:42.321Z,27.21
2018-04-19T08:37:42.329Z,27.19
2018-04-19T08:38:42.282Z,27.29
2018-04-19T08:39:42.353Z,27.38
2018-04-19T08:40:42.335Z,27.46
2018-04-19T08:41:46.512Z,27.76
2018-04-19T08:42:42.349Z,27.89
2018-04-19T08:43:42.364Z,27.86
2018-04-19T08:44:42.367Z,27.71
2018-04-19T08:45:42.394Z,27.86
2018-04-19T08:46:42.403Z,28.03
2018-04-19T08:47:42.472Z,28.22
2018-04-19T08:48:43.394Z,28.22
2018-04-19T08:49:43.084Z,28.17
2018-04-19T08:50:42.475Z,28.14
2018-04-19T08:51:42.489Z,28.29
2018-04-19T08:52:56.591Z,28.36
2018-04-19T08:53:44.077Z,28.63
2018-04-19T08:54:42.581Z,28.70
2018-04-19T08:55:42.573Z,28.96
2018-04-19T08:56:42.565Z,29.04
2018-04-19T08:57:44.574Z,28.97
2018-04-19T08:58:42.597Z,28.87
2018-04-19T08:59:42.616Z,28.69
2018-04-19T09:00:42.634Z,28.69
2018-04-19T09:01:42.650Z,28.51
2018-04-19T09:02:57.071Z,28.90
2018-04-19T09:03:42.686Z,28.91
2018-04-19T09:04:43.837Z,28.97
2018-04-19T09:05:42.728Z,29.00
2018-04-19T09:06:42.737Z,29.10
2018-04-19T09:07:42.764Z,29.35
2018-04-19T09:08:42.827Z,29.60
2018-04-19T09:09:42.787Z,29.75
2018-04-19T09:10:42.845Z,30.12
2018-04-19T09:11:42.897Z,29.99
2018-04-19T09:12:42.851Z,30.07
2018-04-19T09:13:53.595Z,30.12
2018-04-19T09:14:44.466Z,29.37
2018-04-19T09:15:42.911Z,29.45
2018-04-19T09:16:42.922Z,29.16
2018-04-19T09:17:43.499Z,29.35
2018-04-19T09:18:43.106Z,29.47
2018-04-19T09:19:43.031Z,29.41
2018-04-19T09:20:43.004Z,29.34
2018-04-19T09:21:43.016Z,29.47
2018-04-19T09:22:43.044Z,29.60
2018-04-19T09:23:43.105Z,29.77
2018-04-19T09:24:43.082Z,29.40
2018-04-19T09:25:43.138Z,29.41
2018-04-19T09:26:43.112Z,29.78
2018-04-19T09:27:43.139Z,30.02
2018-04-19T09:28:43.212Z,30.08
2018-04-19T09:29:43.182Z,30.24
2018-04-19T09:30:43.202Z,30.24
2018-04-19T09:31:43.259Z,30.30
2018-04-19T09:32:43.237Z,30.56
2018-04-19T09:33:43.309Z,30.49
2018-04-19T09:34:43.265Z,30.57
2018-04-19T09:35:43.297Z,30.33
2018-04-19T09:36:43.311Z,30.38
2018-04-19T09:37:43.330Z,30.19
2018-04-19T09:38:43.405Z,30.18
2018-04-19T09:39:43.365Z,30.30
2018-04-19T09:40:43.388Z,30.38
2018-04-19T09:41:43.407Z,30.07
2018-04-19T09:42:43.424Z,28.85
2018-04-19T09:43:43.628Z,27.47
2018-04-19T09:44:43.480Z,26.68
2018-04-19T09:45:43.491Z,26.35
2018-04-19T09:46:43.536Z,25.54
2018-04-19T09:47:43.527Z,25.27
2018-04-19T09:48:43.607Z,25.75
2018-04-19T09:49:43.567Z,25.47
2018-04-19T09:50:43.610Z,25.62
2018-04-19T09:51:43.695Z,25.46
2018-04-19T09:52:43.632Z,25.24
2018-04-19T09:53:45.607Z,25.16
2018-04-19T09:54:43.677Z,24.90
2018-04-19T09:55:43.699Z,24.75
2018-04-19T09:56:43.716Z,24.61
2018-04-19T09:57:43.728Z,25.15
2018-04-19T09:58:43.804Z,25.46
2018-04-19T10:00:02.112Z,25.79
2018-04-19T10:00:43.797Z,25.54
2018-04-19T10:01:43.813Z,25.69
2018-04-19T10:02:44.182Z,25.97
2018-04-19T10:03:44.064Z,25.89
2018-04-19T10:05:19.184Z,26.06
2018-04-19T10:05:44.450Z,26.22
2018-04-19T10:06:44.222Z,25.98
2018-04-19T10:07:43.931Z,25.61
2018-04-19T10:08:43.948Z,25.43
2018-04-19T10:11:17.255Z,25.25
2018-04-19T10:12:15.599Z,24.69
2018-04-19T10:13:15.618Z,24.56
2018-04-19T10:14:15.687Z,24.23
2018-04-19T10:15:15.661Z,23.98
2018-04-19T10:16:15.675Z,24.56
2018-04-19T10:17:15.703Z,24.95
2018-04-19T10:18:15.713Z,24.67
2018-04-19T10:20:48.048Z,24.50
2018-04-19T10:21:47.397Z,24.57
2018-04-19T10:22:47.420Z,23.90
2018-04-19T10:23:47.437Z,24.42
2018-04-19T10:25:09.029Z,24.54
2018-04-19T10:25:47.482Z,25.07
2018-04-19T10:26:47.502Z,25.72
2018-04-19T10:27:47.516Z,26.02
2018-04-19T10:28:47.546Z,25.25
2018-04-19T10:31:19.279Z,24.87
2018-04-19T10:32:19.250Z,24.92
2018-04-19T10:33:19.372Z,25.39
2018-04-19T10:34:19.507Z,25.25
2018-04-19T10:35:19.311Z,25.34
2018-04-19T10:36:19.329Z,25.38
2018-04-19T10:37:19.627Z,25.69
2018-04-19T10:38:19.367Z,25.02
2018-04-19T10:39:22.839Z,24.73
2018-04-19T10:40:19.407Z,25.15
2018-04-19T10:41:19.488Z,24.69
2018-04-19T10:42:19.443Z,24.63
2018-04-19T10:43:19.467Z,24.71
2018-04-19T10:44:20.340Z,24.69
2018-04-19T10:45:19.513Z,25.50
2018-04-19T10:46:19.533Z,25.57
2018-04-19T10:47:19.551Z,26.21
2018-04-19T10:48:19.568Z,26.31
2018-04-19T10:49:19.640Z,25.31
2018-04-19T10:50:19.610Z,24.69
2018-04-19T10:51:19.647Z,24.49
2018-04-19T10:52:19.649Z,24.83
2018-04-19T10:53:19.667Z,25.25
2018-04-19T10:55:58.954Z,25.44
2018-04-19T10:56:51.333Z,24.85
2018-04-19T10:57:51.359Z,24.56
2018-04-19T10:58:54.462Z,25.09
2018-04-19T10:59:51.396Z,25.61
2018-04-19T11:00:52.001Z,26.36
2018-04-19T11:01:51.435Z,25.90
2018-04-19T11:02:51.452Z,25.17
2018-04-19T11:03:51.533Z,25.22
2018-04-19T11:04:51.496Z,25.34
2018-04-19T11:05:51.521Z,25.90
2018-04-19T11:06:51.532Z,26.22
2018-04-19T11:07:51.613Z,25.47
2018-04-19T11:08:51.579Z,25.06
2018-04-19T11:09:51.596Z,24.95
2018-04-19T11:10:51.616Z,25.15
2018-04-19T11:11:51.634Z,25.00
2018-04-19T11:12:51.717Z,24.97
2018-04-19T11:13:51.686Z,25.61
2018-04-19T11:14:51.697Z,24.69
2018-04-19T11:15:51.765Z,24.68
2018-04-19T11:16:51.737Z,25.27
2018-04-19T11:17:51.968Z,24.94
2018-04-19T11:18:51.777Z,24.82
2018-04-19T11:19:51.803Z,24.87
2018-04-19T11:20:51.828Z,25.10
2018-04-19T11:21:51.842Z,25.00
2018-04-19T11:22:51.862Z,25.10
2018-04-19T11:23:51.978Z,24.71
2018-04-19T11:24:51.906Z,24.73
2018-04-19T11:25:51.923Z,24.57
2018-04-19T11:26:51.946Z,24.54
2018-04-19T11:27:51.970Z,24.59
2018-04-19T11:28:53.981Z,24.77
2018-04-19T11:29:52.000Z,24.88
2018-04-19T11:30:52.023Z,24.68
2018-04-19T11:31:52.044Z,24.54
2018-04-19T11:32:52.064Z,24.39
2018-04-19T11:34:10.476Z,24.87
2018-04-19T11:34:52.103Z,25.06
2018-04-19T11:35:52.209Z,25.00
2018-04-19T11:36:52.144Z,25.28
2018-04-19T11:37:52.160Z,24.88
2018-04-19T11:38:52.792Z,24.64
2018-04-19T11:39:52.205Z,25.07
2018-04-19T11:40:52.229Z,24.85
2018-04-19T11:41:52.897Z,24.80
2018-04-19T11:42:52.261Z,24.59
2018-04-19T11:44:02.990Z,24.76
2018-04-19T11:44:52.305Z,24.76
2018-04-19T11:45:52.322Z,25.39
2018-04-19T11:46:52.350Z,25.61
2018-04-19T11:47:52.370Z,25.52
2018-04-19T11:48:54.184Z,25.27
2018-04-19T11:49:52.404Z,24.85
2018-04-19T11:50:52.435Z,24.85
2018-04-19T11:51:52.440Z,24.87
2018-04-19T11:52:52.468Z,24.98
2018-04-19T11:53:52.528Z,25.38
2018-04-19T11:54:52.503Z,25.35
2018-04-19T11:55:52.564Z,24.87
2018-04-19T11:56:52.546Z,24.69
2018-04-19T11:57:52.562Z,24.41
2018-04-19T11:58:52.992Z,24.63
2018-04-19T11:59:52.609Z,25.13
2018-04-19T12:00:52.624Z,25.83
2018-04-19T12:01:52.641Z,26.21
2018-04-19T12:02:52.662Z,26.06
2018-04-19T12:05:34.963Z,25.27
2018-04-19T12:06:24.381Z,25.13
2018-04-19T12:07:24.407Z,25.37
2018-04-19T12:08:24.508Z,25.39
2018-04-19T12:09:24.447Z,25.61
2018-04-19T12:10:24.461Z,25.97
2018-04-19T12:11:25.364Z,26.77
2018-04-19T12:12:24.502Z,26.20
2018-04-19T12:13:24.561Z,26.08
2018-04-19T12:14:24.541Z,25.86
2018-04-19T12:15:24.557Z,25.22
2018-04-19T12:16:24.589Z,25.84
2018-04-19T12:17:24.602Z,25.38
2018-04-19T12:18:28.931Z,25.49
2018-04-19T12:19:24.643Z,25.56
2018-04-19T12:20:24.662Z,25.16
2018-04-19T12:21:24.679Z,25.16
2018-04-19T12:22:24.700Z,25.20
2018-04-19T12:23:42.990Z,25.27
2018-04-19T12:24:24.740Z,25.13
2018-04-19T12:25:24.816Z,25.02
2018-04-19T12:26:24.775Z,24.94
2018-04-19T12:27:24.791Z,25.24
2018-04-19T12:28:25.470Z,25.56
2018-04-19T12:29:24.844Z,25.01
2018-04-19T12:30:24.855Z,24.90
2018-04-19T12:31:24.875Z,25.24
2018-04-19T12:32:24.893Z,25.80
2018-04-19T12:33:24.957Z,25.50
2018-04-19T12:34:24.943Z,25.43
2018-04-19T12:35:24.952Z,26.22
2018-04-19T12:36:24.981Z,26.61
2018-04-19T12:37:25.001Z,25.43
2018-04-19T12:38:53.962Z,25.09
2018-04-19T12:39:25.889Z,25.99
2018-04-19T12:40:25.058Z,26.02
2018-04-19T12:41:25.079Z,25.83
2018-04-19T12:42:25.095Z,25.71
2018-04-19T12:43:43.470Z,25.27
2018-04-19T12:44:25.144Z,25.30
2018-04-19T12:45:25.262Z,25.37
2018-04-19T12:46:25.179Z,25.46
2018-04-19T12:47:25.195Z,25.34
2018-04-19T12:51:39.120Z,25.06
2018-04-19T12:52:29.177Z,25.57
2018-04-19T12:53:29.105Z,26.01
2018-04-19T12:54:28.528Z,26.31
2018-04-19T12:55:28.556Z,26.08
2018-04-19T12:56:28.613Z,26.12
2018-04-19T12:57:28.593Z,25.87
2018-04-19T13:00:00.327Z,25.13
2018-04-19T13:01:00.298Z,25.37
2018-04-19T13:02:00.368Z,25.72
2018-04-19T13:03:07.906Z,25.77
2018-04-19T13:04:00.352Z,25.59
2018-04-19T13:05:00.374Z,25.54
2018-04-19T13:06:00.389Z,25.53
2018-04-19T13:07:00.428Z,25.83
2018-04-19T13:08:00.430Z,25.56
2018-04-19T13:09:00.901Z,26.02
2018-04-19T13:10:00.468Z,26.01
2018-04-19T13:11:00.490Z,25.94
2018-04-19T13:12:00.510Z,25.42
2018-04-19T13:13:00.533Z,25.65
2018-04-19T13:14:00.719Z,25.59
2018-04-19T13:15:00.566Z,25.46